This is the latest recevied weather packets stored in our database for station/object KC4JES. If no packets are shown the sender has not sent any weather packets the latest 1 day(s).
| Time | Temp. | Humidity | Pressure | Rain* | Wind** | Luminosity | Snow |
|---|---|---|---|---|---|---|---|
| 1778078480 | 27.22° C | 64% | 1018 hPa | 0 mm | - | 94 W/m² | - |
| 1778078178 | 27.22° C | 62% | 1018.1 hPa | 0 mm | - | 98 W/m² | - |
| 1778077272 | 26.67° C | 67% | 1018.1 hPa | 0 mm | - | 74 W/m² | - |
| 1778073029 | 23.89° C | 77% | 1018.1 hPa | 0 mm | - | 72 W/m² | - |
| 1778072726 | 23.33° C | 77% | 1017.9 hPa | 0 mm | - | 55 W/m² | - |
| 1778071819 | 22.78° C | 78% | 1017.8 hPa | 0 mm | - | 58 W/m² | - |
| 1778070610 | 21.67° C | 82% | 1017.6 hPa | 0 mm | - | 49 W/m² | - |
| 1778069398 | 20° C | 87% | 1017.6 hPa | 0 mm | - | 35 W/m² | - |
| 1778069096 | 20° C | 89% | 1017.6 hPa | 0 mm | - | 40 W/m² | - |
| 1778068793 | 19.44° C | 90% | 1017.7 hPa | 0 mm | - | 38 W/m² | - |
| 1778068189 | 18.33° C | 94% | 1017.4 hPa | 0 mm | - | 41 W/m² | - |
| 1778067886 | 17.78° C | 94% | 1017.4 hPa | 0 mm | - | 41 W/m² | - |
| 1778067282 | 17.22° C | 95% | 1017 hPa | 0 mm | - | 33 W/m² | - |
| 1778066978 | 17.22° C | 95% | 1017.2 hPa | 0 mm | - | 27 W/m² | - |
| 1778066676 | 17.22° C | 95% | 1017.1 hPa | 0 mm | - | 25 W/m² | - |
| 1778066373 | 16.67° C | 95% | 1017.1 hPa | 0 mm | - | 24 W/m² | - |
| 1778065768 | 16.67° C | 95% | 1017 hPa | 0 mm | - | 17 W/m² | - |
| 1778065162 | 16.67° C | 94% | 1017 hPa | 0 mm | - | 8 W/m² | - |
| 1778064556 | 16.67° C | 94% | 1016.7 hPa | 0 mm | - | 4 W/m² | - |
| 1778064254 | 16.67° C | 94% | 1016.8 hPa | 0 mm | - | 2 W/m² | - |
| 1778063649 | 16.67° C | 94% | 1016.7 hPa | 0 mm | - | 1 W/m² | - |
| 1778063044 | 16.67° C | 93% | 1016.8 hPa | 0 mm | - | 0 W/m² | - |
| 1778062134 | 16.67° C | 93% | 1017 hPa | 0 mm | - | 0 W/m² | - |
| 1778061833 | 16.67° C | 93% | 1016.9 hPa | 0 mm | - | 0 W/m² | - |
| 1778061228 | 16.67° C | 93% | 1016.8 hPa | 0 mm | - | 0 W/m² | - |
* Rain latest hour (hover to see other rain measurements)
** Current wind speed in m/s (hover to see current wind gust speed)